Time;durP1;ratioP1;P1;durP2;ratioP2;P2;SDS_P1;SDS_P2;PMS_P1;PMS_P2;Temp;Humidity;BMP_temperature;BMP_pressure;BME280_temperature;BME280_humidity;BME280_pressure;Samples;Min_cycle;Max_cycle;Signal;HPM_P1;HPM_P2
2023/04/02 00:00:08;;;;;;;49.08;29.25;;;;;;;15.93;89.35;98492.13;4868034;29;20061;-62
2023/04/02 00:02:55;;;;;;;48.63;28.63;;;;;;;15.88;89.83;98493.88;4864846;29;20075;-62
2023/04/02 00:05:29;;;;;;;53.58;28.92;;;;;;;15.91;89.47;98499.56;4865484;29;20063;-61
2023/04/02 00:08:09;;;;;;;46.53;26.83;;;;;;;15.79;89.52;98490.75;4867617;29;20108;-62
2023/04/02 00:10:47;;;;;;;52.55;28.15;;;;;;;15.80;89.71;98496.91;4914263;29;20047;-62
2023/04/02 00:13:24;;;;;;;52.90;28.83;;;;;;;15.88;89.61;98494.72;4925378;29;20060;-62
2023/04/02 00:15:56;;;;;;;51.38;26.08;;;;;;;15.75;89.80;98500.28;4908744;29;20532;-62
2023/04/02 00:18:26;;;;;;;47.33;26.83;;;;;;;15.73;90.04;98507.69;4924968;29;20044;-62
2023/04/02 00:21:22;;;;;;;47.45;27.35;;;;;;;15.61;89.71;98504.19;4926500;29;20110;-62
2023/04/02 00:23:53;;;;;;;43.20;25.33;;;;;;;15.47;90.42;98505.41;4926061;29;20146;-62
2023/04/02 00:26:33;;;;;;;49.10;26.23;;;;;;;15.49;90.60;98503.31;4927306;29;20067;-62
2023/04/02 00:29:05;;;;;;;46.75;25.40;;;;;;;15.40;90.90;98502.03;4923705;29;20044;-61
2023/04/02 00:31:40;;;;;;;42.42;25.13;;;;;;;15.48;90.61;98493.69;4925862;29;20047;-62
2023/04/02 00:34:28;;;;;;;48.22;28.08;;;;;;;15.66;91.20;98501.66;4929670;29;20055;-61
2023/04/02 00:36:58;;;;;;;48.42;31.33;;;;;;;15.33;90.08;98507.44;4930810;29;20519;-62
2023/04/02 00:39:31;;;;;;;47.72;30.08;;;;;;;15.32;90.63;98513.81;4920518;29;20811;-62
2023/04/02 00:42:05;;;;;;;48.35;30.27;;;;;;;15.31;90.92;98519.41;4929377;29;20071;-61
2023/04/02 00:44:44;;;;;;;49.95;30.08;;;;;;;15.28;90.65;98521.47;4929705;29;20063;-62
2023/04/02 00:47:36;;;;;;;50.65;30.08;;;;;;;15.16;90.65;98520.63;4929953;29;20051;-62
2023/04/02 00:50:20;;;;;;;57.92;31.35;;;;;;;15.19;91.07;98528.16;4928396;29;20051;-61
2023/04/02 00:52:52;;;;;;;55.80;32.13;;;;;;;15.12;90.81;98527.44;4928965;29;20052;-62
2023/04/02 00:55:35;;;;;;;55.92;31.00;;;;;;;15.23;91.43;98529.34;4926855;29;20524;-61
2023/04/02 00:58:26;;;;;;;54.45;31.27;;;;;;;15.24;90.96;98530.97;4927167;29;20051;-61
2023/04/02 01:00:57;;;;;;;56.90;31.77;;;;;;;15.37;91.26;98535.31;4913993;29;20802;-62
2023/04/02 01:03:37;;;;;;;59.25;31.95;;;;;;;15.50;90.83;98535.13;4927880;29;20153;-61
2023/04/02 01:06:10;;;;;;;62.90;33.70;;;;;;;15.49;90.29;98535.34;4949470;28;20699;-61
2023/04/02 01:09:22;;;;;;;56.00;31.67;;;;;;;15.50;90.71;98535.13;4960531;28;20058;-61
2023/04/02 01:12:13;;;;;;;65.70;33.33;;;;;;;15.55;90.35;98534.47;4939904;29;20048;-63
2023/04/02 01:15:08;;;;;;;74.13;34.25;;;;;;;15.54;89.69;98538.97;4949357;28;20043;-63
2023/04/02 01:17:53;;;;;;;62.95;34.08;;;;;;;15.63;90.31;98539.47;4948274;29;20051;-62
2023/04/02 01:20:33;;;;;;;64.05;33.20;;;;;;;15.50;89.75;98537.81;4929228;29;20086;-62
2023/04/02 01:23:24;;;;;;;63.10;34.47;;;;;;;15.47;89.83;98545.44;4948825;28;20039;-61
2023/04/02 01:26:13;;;;;;;65.57;33.58;;;;;;;15.48;90.09;98537.22;4949644;28;20047;-62
2023/04/02 01:29:17;;;;;;;63.70;33.20;;;;;;;15.53;89.90;98536.56;4931784;29;20058;-63
2023/04/02 01:31:48;;;;;;;63.75;36.47;;;;;;;15.57;89.58;98543.88;4949118;28;20647;-62
2023/04/02 01:34:22;;;;;;;70.32;38.38;;;;;;;15.61;89.97;98546.91;4931747;28;20062;-62
2023/04/02 01:37:05;;;;;;;72.68;39.85;;;;;;;15.77;89.99;98548.09;4949225;28;20047;-63
2023/04/02 01:39:58;;;;;;;76.15;42.60;;;;;;;15.86;89.27;98549.38;4948688;29;20154;-63
2023/04/02 01:42:44;;;;;;;74.50;45.38;;;;;;;15.80;88.52;98542.31;4948464;28;20057;-62
2023/04/02 01:45:16;;;;;;;74.57;44.95;;;;;;;15.85;88.44;98553.09;4931183;29;20381;-62
2023/04/02 01:47:46;;;;;;;70.40;43.85;;;;;;;16.10;88.38;98551.88;4928433;29;20039;-63
2023/04/02 01:50:38;;;;;;;70.47;43.88;;;;;;;16.05;87.39;98556.28;4912427;29;20051;-62
2023/04/02 01:53:15;;;;;;;64.75;44.30;;;;;;;16.50;86.81;98564.53;4943929;29;20118;-62
2023/04/02 01:56:06;;;;;;;65.10;44.85;;;;;;;16.45;85.37;98564.41;4947906;29;20039;-62
2023/04/02 01:58:36;;;;;;;65.50;42.70;;;;;;;16.64;84.74;98568.59;4947097;29;20061;-62
2023/04/02 02:01:19;;;;;;;58.22;41.00;;;;;;;17.72;81.98;98571.28;4931206;29;20074;-62
2023/04/02 02:03:52;;;;;;;55.25;40.17;;;;;;;18.17;79.85;98573.91;4927800;29;20054;-63
2023/04/02 02:06:23;;;;;;;57.47;38.45;;;;;;;19.34;74.21;98568.25;4938984;29;20206;-63
2023/04/02 02:08:57;;;;;;;50.03;34.78;;;;;;;19.51;73.01;98573.59;4947457;28;20049;-63
2023/04/02 02:11:31;;;;;;;43.65;32.25;;;;;;;19.65;71.21;98577.47;4959453;28;20059;-63
2023/04/02 02:14:21;;;;;;;41.75;30.38;;;;;;;20.49;69.51;98575.00;4931224;29;20146;-63
2023/04/02 02:16:55;;;;;;;34.80;26.15;;;;;;;21.25;65.53;98586.13;4931451;29;20092;-63
2023/04/02 02:20:01;;;;;;;35.47;26.10;;;;;;;21.28;65.17;98591.03;4925038;29;20055;-63
2023/04/02 02:22:34;;;;;;;34.45;25.02;;;;;;;21.02;66.89;98593.56;4853817;29;20048;-63
2023/04/02 02:25:06;;;;;;;;;;;;;;;21.91;63.72;98592.50;4945743;28;20062;-63
2023/04/02 02:28:06;;;;;;;30.02;23.48;;;;;;;22.09;63.53;98596.56;4948788;28;19930;-63
2023/04/02 02:30:41;;;;;;;33.60;24.27;;;;;;;21.49;63.03;98606.16;4956940;28;20582;-63
2023/04/02 02:33:28;;;;;;;30.60;23.83;;;;;;;22.12;64.30;98610.34;4916156;29;20071;-63
2023/04/02 02:36:21;;;;;;;27.48;22.25;;;;;;;23.11;60.54;98604.28;4945582;29;20055;-63
2023/04/02 02:38:56;;;;;;;33.13;23.77;;;;;;;23.11;58.70;98612.38;4946523;29;20467;-63
2023/04/02 02:41:56;;;;;;;28.55;21.70;;;;;;;22.88;59.30;98617.59;4958659;28;20047;-63
2023/04/02 02:44:30;;;;;;;30.50;23.55;;;;;;;23.46;57.94;98622.25;4939934;28;20153;-63
2023/04/02 02:47:14;;;;;;;28.95;22.00;;;;;;;22.89;61.23;98630.00;4948526;28;20065;-63
2023/04/02 02:49:58;;;;;;;30.02;21.58;;;;;;;22.64;61.41;98637.03;4914537;29;20044;-63
2023/04/02 02:52:31;;;;;;;31.63;20.50;;;;;;;22.80;61.88;98641.38;4940279;28;20126;-63
2023/04/02 02:55:11;;;;;;;27.33;22.38;;;;;;;22.26;62.54;98651.09;4929594;29;20077;-63
2023/04/02 02:58:07;;;;;;;29.98;22.05;;;;;;;20.76;67.57;98650.22;4946554;28;20051;-64
2023/04/02 03:00:45;;;;;;;26.65;20.88;;;;;;;20.68;68.08;98648.81;4930027;29;20050;-64
2023/04/02 03:03:22;;;;;;;28.58;21.17;;;;;;;20.57;67.57;98661.41;4925183;29;20463;-65
2023/04/02 03:06:02;;;;;;;25.17;19.48;;;;;;;20.40;69.75;98668.78;4940462;28;20043;-64
2023/04/02 03:08:51;;;;;;;26.17;20.40;;;;;;;20.11;69.84;98667.44;4946493;29;20478;-66
2023/04/02 03:11:48;;;;;;;23.60;17.58;;;;;;;20.21;72.47;98669.41;4944936;28;20130;-63
2023/04/02 03:14:33;;;;;;;22.95;17.27;;;;;;;19.99;72.13;98666.78;4929971;29;20051;-64
2023/04/02 03:17:24;;;;;;;20.27;17.23;;;;;;;20.44;72.03;98669.13;4929719;29;20043;-67
2023/04/02 03:20:00;;;;;;;20.67;15.73;;;;;;;20.03;71.86;98670.59;4924786;29;20067;-64
2023/04/02 03:22:37;;;;;;;23.40;17.30;;;;;;;20.02;72.64;98671.66;4934739;29;20047;-64
2023/04/02 03:25:31;;;;;;;19.80;17.25;;;;;;;20.25;71.69;98675.91;4925678;29;20059;-63
2023/04/02 03:28:05;;;;;;;18.52;16.02;;;;;;;20.31;70.10;98677.59;4927989;29;20040;-63
2023/04/02 03:30:43;;;;;;;19.13;16.40;;;;;;;20.39;71.05;98679.81;4911001;29;20764;-64
2023/04/02 03:33:30;;;;;;;22.83;16.65;;;;;;;20.39;70.92;98683.34;4926318;29;20061;-64
2023/04/02 03:36:45;;;;;;;21.75;15.90;;;;;;;20.41;71.66;98685.75;4928139;29;20118;-63
2023/04/02 03:39:40;;;;;;;18.73;14.20;;;;;;;20.25;69.74;98686.66;4880603;29;20051;-63
2023/04/02 03:42:24;;;;;;;14.75;12.00;;;;;;;20.26;69.90;98691.78;4923695;29;20043;-67
2023/04/02 03:45:00;;;;;;;22.70;16.73;;;;;;;20.45;70.91;98698.44;4926664;29;20063;-65
2023/04/02 03:47:36;;;;;;;18.92;14.80;;;;;;;20.87;70.10;98698.50;4930781;29;20047;-63
2023/04/02 03:50:25;;;;;;;17.83;14.80;;;;;;;20.85;69.97;98702.50;4929356;29;20048;-64
2023/04/02 03:52:59;;;;;;;21.77;14.35;;;;;;;20.74;69.09;98700.81;4913935;29;20059;-64
2023/04/02 03:55:33;;;;;;;19.13;11.93;;;;;;;20.89;68.40;98712.50;4910653;29;20610;-63
2023/04/02 03:58:20;;;;;;;18.60;12.60;;;;;;;20.68;67.38;98708.03;4926115;29;20039;-66
2023/04/02 04:01:18;;;;;;;19.63;14.13;;;;;;;20.80;69.03;98708.66;4928037;29;20527;-63
2023/04/02 04:03:56;;;;;;;19.30;14.85;;;;;;;20.85;68.67;98710.56;4946230;28;20047;-67
2023/04/02 04:06:32;;;;;;;21.08;15.25;;;;;;;20.63;68.53;98716.06;4925741;29;20051;-64
2023/04/02 04:09:15;;;;;;;17.88;15.27;;;;;;;20.84;69.93;98715.19;4926919;29;20051;-64
2023/04/02 04:11:49;;;;;;;;;;;;;;;20.61;68.61;98710.97;4934930;29;20140;-64
2023/04/02 04:14:20;;;;;;;;;;;;;;;20.92;69.62;98708.50;4913795;28;20472;-64
2023/04/02 04:16:56;;;;;;;21.20;13.15;;;;;;;21.01;69.34;98713.13;4951308;28;19961;-64
2023/04/02 04:19:53;;;;;;;24.40;14.68;;;;;;;21.02;69.19;98709.34;4963810;28;20050;-63
2023/04/02 04:22:32;;;;;;;20.75;13.50;;;;;;;21.11;68.08;98712.38;4916093;29;20134;-64
2023/04/02 04:25:28;;;;;;;20.98;14.10;;;;;;;21.15;68.13;98702.75;4926280;29;20891;-64
2023/04/02 04:28:40;;;;;;;22.40;15.27;;;;;;;21.16;66.96;98703.53;4925781;29;20118;-65
2023/04/02 04:31:29;;;;;;;24.80;16.17;;;;;;;21.39;67.10;98708.53;4940786;29;20154;-64
2023/04/02 04:34:04;;;;;;;27.17;18.13;;;;;;;22.11;66.78;98705.03;4946000;28;20055;-63
2023/04/02 04:36:46;;;;;;;39.30;23.60;;;;;;;22.14;64.87;98702.59;4946031;28;20051;-63
2023/04/02 04:39:34;;;;;;;40.92;24.80;;;;;;;21.75;67.19;98706.78;4959110;28;20059;-64
2023/04/02 04:42:06;;;;;;;42.72;24.48;;;;;;;22.16;66.89;98713.94;4918756;29;20250;-64
2023/04/02 04:44:59;;;;;;;40.40;25.10;;;;;;;22.58;65.00;98704.81;4929363;29;20394;-63
2023/04/02 04:47:37;;;;;;;36.83;23.25;;;;;;;22.86;64.96;98698.06;4928538;29;20071;-63
2023/04/02 04:50:29;;;;;;;37.45;23.20;;;;;;;23.43;61.99;98703.88;4945629;29;20055;-63
2023/04/02 04:53:14;;;;;;;47.95;25.02;;;;;;;23.87;62.29;98695.06;4925937;29;20058;-63
2023/04/02 04:55:47;;;;;;;42.25;23.63;;;;;;;24.73;58.17;98695.31;4946062;29;20055;-64
2023/04/02 04:58:27;;;;;;;45.65;26.45;;;;;;;24.08;58.36;98705.50;4947793;28;20489;-65
2023/04/02 05:01:06;;;;;;;46.10;25.50;;;;;;;23.08;59.21;98704.78;4945201;28;20475;-64
2023/04/02 05:03:50;;;;;;;38.75;23.35;;;;;;;23.77;61.10;98704.03;4925348;29;20063;-63
2023/04/02 05:06:55;;;;;;;34.08;23.35;;;;;;;23.64;60.11;98697.34;4946156;28;20113;-62
2023/04/02 05:09:49;;;;;;;39.30;23.77;;;;;;;23.25;60.84;98704.47;4928766;29;20749;-63
2023/04/02 05:12:36;;;;;;;39.42;24.33;;;;;;;23.39;62.00;98704.72;4923292;29;20048;-63
2023/04/02 05:15:17;;;;;;;33.75;21.17;;;;;;;23.72;59.89;98702.16;4925542;29;20099;-62
2023/04/02 05:18:05;;;;;;;32.97;22.92;;;;;;;23.75;61.51;98698.13;4909438;29;20054;-64
2023/04/02 05:21:01;;;;;;;34.75;22.00;;;;;;;24.11;60.66;98696.84;4915453;29;20051;-64
2023/04/02 05:23:44;;;;;;;32.85;21.45;;;;;;;23.67;59.66;98685.19;4935783;29;20369;-64
2023/04/02 05:26:45;;;;;;;38.60;22.37;;;;;;;24.30;59.21;98685.34;4945353;29;20039;-64
2023/04/02 05:29:33;;;;;;;37.78;24.33;;;;;;;24.17;59.08;98682.19;4944744;28;20098;-63
2023/04/02 05:32:13;;;;;;;34.72;20.90;;;;;;;24.90;58.08;98687.59;4950564;28;20043;-64
2023/04/02 05:34:50;;;;;;;30.80;19.38;;;;;;;24.90;56.50;98684.88;4931167;29;20054;-64
2023/04/02 05:37:23;;;;;;;31.10;19.00;;;;;;;25.31;56.42;98679.03;4948220;28;20110;-64
2023/04/02 05:39:56;;;;;;;22.20;14.52;;;;;;;25.11;54.48;98680.06;4935263;29;20040;-64
2023/04/02 05:42:31;;;;;;;;;;;;;;;24.72;55.75;98685.56;4947616;28;20134;-62
2023/04/02 05:45:22;;;;;;;23.40;15.38;;;;;;;24.29;55.91;98695.41;4930945;29;20041;-62
2023/04/02 05:48:00;;;;;;;21.85;14.98;;;;;;;24.84;55.37;98687.88;4948076;29;20102;-64
2023/04/02 05:50:39;;;;;;;;;;;;;;;24.85;55.86;98694.91;4932107;29;20053;-64
2023/04/02 05:53:24;;;;;;;24.70;14.65;;;;;;;24.65;56.25;98690.47;4952878;28;19954;-63
2023/04/02 05:56:15;;;;;;;21.08;15.07;;;;;;;24.60;55.39;98698.69;4913387;29;20534;-64
2023/04/02 05:58:54;;;;;;;23.48;15.00;;;;;;;24.79;55.08;98690.63;4945435;29;20681;-64
2023/04/02 06:01:37;;;;;;;25.65;17.17;;;;;;;24.67;55.76;98693.72;4930614;29;20121;-65
2023/04/02 06:04:35;;;;;;;30.92;18.83;;;;;;;24.74;54.83;98702.31;4923859;29;20128;-64
2023/04/02 06:07:15;;;;;;;26.37;16.77;;;;;;;25.12;55.53;98689.81;4912259;29;20157;-64
2023/04/02 06:10:22;;;;;;;26.88;15.85;;;;;;;25.14;54.89;98690.31;4928476;29;20134;-64
2023/04/02 06:13:01;;;;;;;23.67;16.85;;;;;;;24.84;56.12;98696.81;4915612;29;20729;-62
2023/04/02 06:15:37;;;;;;;26.05;15.32;;;;;;;24.79;54.77;98691.44;4908928;29;20127;-63
2023/04/02 06:18:17;;;;;;;21.30;14.57;;;;;;;24.84;56.17;98694.13;4910690;29;20052;-63
2023/04/02 06:20:48;;;;;;;25.92;15.60;;;;;;;25.16;55.60;98687.31;4927998;29;20087;-63
2023/04/02 06:23:24;;;;;;;24.77;16.10;;;;;;;25.18;56.24;98694.06;4928026;29;20055;-62
2023/04/02 06:26:08;;;;;;;26.92;16.95;;;;;;;25.22;55.91;98691.59;4929036;29;20058;-62
2023/04/02 06:28:57;;;;;;;25.95;17.25;;;;;;;25.34;54.57;98686.59;4908869;29;20151;-63
2023/04/02 06:31:42;;;;;;;30.23;16.52;;;;;;;25.69;56.49;98686.19;4912883;29;20126;-63
2023/04/02 06:34:17;;;;;;;30.48;17.92;;;;;;;25.85;55.81;98678.63;4908501;29;20052;-64
2023/04/02 06:37:37;;;;;;;30.27;20.55;;;;;;;25.82;55.75;98677.31;4917636;29;20367;-64
2023/04/02 06:40:33;;;;;;;33.88;20.75;;;;;;;25.62;55.84;98669.47;4925446;29;20075;-64
2023/04/02 06:43:32;;;;;;;28.98;19.17;;;;;;;25.55;52.83;98668.19;4909312;29;20455;-63
2023/04/02 06:46:42;;;;;;;30.40;18.60;;;;;;;25.36;54.87;98671.63;4927273;29;20047;-65
2023/04/02 06:49:20;;;;;;;28.48;19.15;;;;;;;25.68;55.83;98662.84;4909604;29;20052;-63
2023/04/02 06:51:57;;;;;;;30.58;18.65;;;;;;;25.78;52.15;98660.00;4909248;29;20058;-64
2023/04/02 06:54:27;;;;;;;32.07;19.47;;;;;;;26.06;53.57;98654.75;4917425;29;20052;-64
2023/04/02 06:57:03;;;;;;;28.65;19.00;;;;;;;25.84;51.81;98648.00;4927379;29;20062;-61
2023/04/02 06:59:39;;;;;;;28.10;18.38;;;;;;;25.68;53.48;98643.88;4940244;29;20047;-62
2023/04/02 07:02:28;;;;;;;30.73;18.42;;;;;;;25.53;51.92;98635.09;4911252;29;20040;-63
2023/04/02 07:05:07;;;;;;;28.80;17.58;;;;;;;26.05;53.59;98642.25;4930175;29;20127;-63
2023/04/02 07:07:42;;;;;;;30.52;18.63;;;;;;;26.11;53.30;98644.59;4911155;29;20083;-63
2023/04/02 07:10:12;;;;;;;24.30;16.38;;;;;;;26.00;51.88;98637.72;4925339;29;20054;-63
2023/04/02 07:12:42;;;;;;;24.77;16.60;;;;;;;26.14;54.92;98637.78;4929039;29;20074;-64
2023/04/02 07:15:18;;;;;;;21.67;16.13;;;;;;;25.71;54.11;98637.84;4892213;29;20052;-62
2023/04/02 07:17:48;;;;;;;23.58;15.77;;;;;;;25.97;52.89;98630.19;4890027;29;20473;-63
2023/04/02 07:20:28;;;;;;;26.92;17.73;;;;;;;26.21;51.74;98624.66;4908771;29;20055;-65
2023/04/02 07:23:02;;;;;;;21.70;16.17;;;;;;;26.39;54.31;98626.53;4906876;29;20054;-63
2023/04/02 07:25:31;;;;;;;28.95;17.30;;;;;;;26.19;52.26;98626.84;4927956;29;20123;-64
2023/04/02 07:28:01;;;;;;;24.20;15.38;;;;;;;26.19;50.79;98624.13;4927266;29;20143;-63
2023/04/02 07:30:30;;;;;;;24.77;17.10;;;;;;;25.86;52.88;98615.94;4926806;29;20051;-63
2023/04/02 07:33:00;;;;;;;27.85;17.58;;;;;;;25.84;49.20;98620.88;4927495;29;20036;-64
2023/04/02 07:35:29;;;;;;;24.15;15.73;;;;;;;25.78;54.77;98610.38;4927938;29;20051;-63
2023/04/02 07:37:59;;;;;;;22.30;14.80;;;;;;;26.25;53.01;98607.47;4927842;29;20484;-65
2023/04/02 07:40:29;;;;;;;25.33;15.57;;;;;;;26.20;51.69;98604.03;4925469;29;20411;-62
2023/04/02 07:42:59;;;;;;;25.92;15.82;;;;;;;26.04;52.14;98591.78;4915815;29;20071;-62
2023/04/02 07:45:28;;;;;;;24.40;15.18;;;;;;;26.22;54.19;98589.06;4916604;29;20055;-63
2023/04/02 07:48:03;;;;;;;22.52;15.55;;;;;;;25.73;50.32;98584.13;4926123;29;20050;-61
2023/04/02 07:50:34;;;;;;;23.00;15.30;;;;;;;25.79;51.96;98584.84;4916527;29;20043;-61
2023/04/02 07:53:05;;;;;;;22.48;16.05;;;;;;;26.12;52.65;98582.97;4925443;29;20043;-59
2023/04/02 07:55:35;;;;;;;22.95;15.43;;;;;;;26.03;51.56;98579.31;4924925;29;20408;-61
2023/04/02 07:58:04;;;;;;;25.13;16.10;;;;;;;25.92;55.50;98573.25;4926511;29;20134;-61
2023/04/02 08:00:34;;;;;;;31.58;18.25;;;;;;;26.23;53.68;98574.41;4925688;29;20043;-62
2023/04/02 08:03:04;;;;;;;20.02;14.07;;;;;;;26.01;52.99;98573.38;4930819;28;20054;-65
2023/04/02 08:05:33;;;;;;;25.95;14.85;;;;;;;25.62;53.46;98569.09;4944527;28;20052;-64
2023/04/02 08:08:03;;;;;;;26.27;16.17;;;;;;;25.48;55.24;98563.56;4944733;29;20141;-64
2023/04/02 08:10:32;;;;;;;27.55;14.95;;;;;;;25.37;52.59;98563.97;4944786;28;20054;-61
2023/04/02 08:13:02;;;;;;;24.15;16.20;;;;;;;25.49;52.07;98559.72;4942349;29;20049;-62
2023/04/02 08:15:31;;;;;;;21.13;14.73;;;;;;;25.31;51.73;98549.69;4943866;29;20051;-61
2023/04/02 08:18:01;;;;;;;23.33;14.43;;;;;;;25.48;52.07;98535.63;4945193;29;20050;-60
2023/04/02 08:20:31;;;;;;;21.45;13.70;;;;;;;25.78;51.35;98547.97;4944114;29;20043;-62
2023/04/02 08:23:02;;;;;;;19.13;12.20;;;;;;;25.98;51.62;98544.91;4941981;29;20337;-63
2023/04/02 08:25:31;;;;;;;25.35;12.70;;;;;;;25.91;48.94;98534.44;4943665;29;20039;-63
2023/04/02 08:28:01;;;;;;;19.08;12.68;;;;;;;25.82;49.81;98532.69;4945773;29;20125;-66
2023/04/02 08:30:31;;;;;;;16.92;11.50;;;;;;;26.08;53.46;98533.88;4943862;29;20061;-67
2023/04/02 08:33:01;;;;;;;15.50;11.85;;;;;;;26.05;52.02;98528.25;4943736;29;20050;-68
2023/04/02 08:35:30;;;;;;;16.27;11.93;;;;;;;26.02;51.75;98518.00;4944524;29;20805;-67
2023/04/02 08:38:00;;;;;;;18.65;12.73;;;;;;;25.94;50.78;98511.31;4944459;29;20048;-67
2023/04/02 08:40:41;;;;;;;14.23;10.80;;;;;;;25.90;50.70;98510.31;4945318;29;20051;-64
2023/04/02 08:43:39;;;;;;;21.35;12.32;;;;;;;26.14;51.60;98504.75;4939935;29;20055;-64
2023/04/02 08:46:27;;;;;;;19.88;12.45;;;;;;;26.08;50.84;98500.50;4943401;28;20059;-64
2023/04/02 08:49:03;;;;;;;19.35;11.63;;;;;;;26.17;52.63;98487.84;4943763;28;20515;-63
2023/04/02 08:51:35;;;;;;;22.17;13.10;;;;;;;26.00;49.93;98483.00;4930664;29;20058;-64
2023/04/02 08:54:36;;;;;;;23.73;13.63;;;;;;;25.99;51.42;98478.69;4945351;28;20046;-63
2023/04/02 08:57:26;;;;;;;22.55;12.45;;;;;;;25.99;50.99;98470.53;4931642;29;20529;-63
2023/04/02 09:00:25;;;;;;;21.25;13.57;;;;;;;26.06;51.31;98465.53;4947678;28;20050;-64
2023/04/02 09:03:16;;;;;;;27.85;13.50;;;;;;;26.11;52.53;98461.94;4944674;29;20121;-63
2023/04/02 09:05:49;;;;;;;18.38;13.70;;;;;;;26.09;52.01;98464.13;4918654;29;20138;-67
2023/04/02 09:08:23;;;;;;;21.20;13.50;;;;;;;25.91;49.16;98457.66;4934875;29;20061;-64
2023/04/02 09:11:29;;;;;;;22.27;13.43;;;;;;;26.00;51.95;98457.78;4932649;29;20047;-64
2023/04/02 09:14:02;;;;;;;31.00;14.95;;;;;;;25.99;52.02;98453.44;4934644;29;20039;-64
2023/04/02 09:16:45;;;;;;;21.40;15.00;;;;;;;26.07;52.21;98444.63;4929836;29;20043;-63
2023/04/02 09:19:40;;;;;;;25.73;16.50;;;;;;;25.98;50.57;98441.78;4934109;29;20595;-62
2023/04/02 09:22:17;;;;;;;26.92;14.27;;;;;;;26.05;52.30;98439.50;4935038;29;20047;-66
2023/04/02 09:24:59;;;;;;;24.65;16.15;;;;;;;25.81;49.99;98436.91;4947985;29;20079;-64
2023/04/02 09:27:31;;;;;;;29.05;17.88;;;;;;;25.80;48.87;98429.88;4948250;29;20047;-66
2023/04/02 09:30:23;;;;;;;26.60;15.55;;;;;;;25.91;52.22;98420.47;4948056;28;20051;-66
2023/04/02 09:32:57;;;;;;;20.33;14.23;;;;;;;25.93;51.43;98417.47;4947484;28;20031;-63
2023/04/02 09:35:29;;;;;;;27.40;16.60;;;;;;;25.94;50.37;98421.75;4946699;28;20047;-62
2023/04/02 09:38:20;;;;;;;22.67;15.18;;;;;;;25.83;52.16;98409.50;4944460;28;20066;-64
2023/04/02 09:40:55;;;;;;;33.00;18.35;;;;;;;25.76;50.67;98407.16;4931554;29;20447;-60
2023/04/02 09:43:32;;;;;;;27.40;19.00;;;;;;;25.58;49.29;98394.44;4948689;29;20548;-64
2023/04/02 09:46:03;;;;;;;27.13;16.15;;;;;;;25.73;51.17;98393.38;4948986;29;20759;-64
2023/04/02 09:48:59;;;;;;;28.77;17.83;;;;;;;25.70;51.25;98380.44;4948919;29;20138;-62
2023/04/02 09:51:33;;;;;;;28.88;17.98;;;;;;;25.66;50.49;98388.38;4940761;29;20158;-63
2023/04/02 09:54:02;;;;;;;27.38;17.88;;;;;;;25.60;50.10;98369.75;4947500;29;20126;-65
2023/04/02 09:56:35;;;;;;;24.35;16.23;;;;;;;25.59;50.83;98371.66;4946156;29;20071;-64
2023/04/02 09:59:22;;;;;;;26.83;16.23;;;;;;;25.55;50.05;98370.66;4948325;28;20059;-63
2023/04/02 10:01:54;;;;;;;21.42;15.93;;;;;;;25.50;50.18;98365.28;4946174;29;20636;-63
2023/04/02 10:04:46;;;;;;;26.48;17.38;;;;;;;25.56;49.72;98347.84;4941500;28;20054;-63
2023/04/02 10:07:31;;;;;;;23.10;16.60;;;;;;;25.64;49.21;98355.28;4942990;29;20051;-63
2023/04/02 10:10:24;;;;;;;25.63;16.13;;;;;;;25.63;50.45;98352.88;4939599;29;20076;-63
2023/04/02 10:13:03;;;;;;;26.17;15.40;;;;;;;25.59;50.64;98352.66;4947880;29;20043;-62
2023/04/02 10:15:48;;;;;;;25.58;16.90;;;;;;;25.54;49.65;98347.34;4948290;28;20047;-63
2023/04/02 10:18:27;;;;;;;21.88;16.00;;;;;;;25.51;50.44;98350.63;4949979;28;20051;-66
2023/04/02 10:21:00;;;;;;;29.77;19.20;;;;;;;25.45;50.51;98347.19;4945485;29;20054;-64
2023/04/02 10:23:31;;;;;;;21.92;15.90;;;;;;;25.48;51.29;98345.78;4944059;29;20051;-64
2023/04/02 10:26:13;;;;;;;30.23;22.15;;;;;;;25.32;49.96;98337.09;4946462;29;20114;-60
2023/04/02 10:28:44;;;;;;;;;;;;;;;25.35;50.60;98343.84;4947924;29;20043;-65
2023/04/02 10:31:18;;;;;;;34.90;24.40;;;;;;;25.37;50.95;98339.72;4928324;29;19926;-64
2023/04/02 10:34:03;;;;;;;29.52;20.65;;;;;;;25.39;51.51;98328.59;4942302;29;20043;-64
2023/04/02 10:36:59;;;;;;;35.97;22.30;;;;;;;25.48;51.77;98324.91;4945569;29;20094;-65
2023/04/02 10:39:40;;;;;;;38.38;24.50;;;;;;;25.24;51.36;98318.81;4945115;29;20420;-65
2023/04/02 10:42:10;;;;;;;34.80;23.38;;;;;;;25.24;51.99;98318.81;4946355;29;20051;-64
2023/04/02 10:45:03;;;;;;;30.15;20.15;;;;;;;25.29;52.46;98318.72;4943272;29;20507;-65
2023/04/02 10:47:40;;;;;;;35.70;24.37;;;;;;;25.20;52.15;98303.44;4915646;28;20194;-64
2023/04/02 10:50:43;;;;;;;34.38;23.60;;;;;;;25.29;52.75;98307.06;4945272;29;20062;-63
2023/04/02 10:53:19;;;;;;;25.80;18.00;;;;;;;25.35;53.42;98314.84;4941389;28;20493;-63
2023/04/02 10:56:07;;;;;;;29.42;18.60;;;;;;;25.23;53.50;98306.34;4943952;29;20050;-63
2023/04/02 10:59:17;;;;;;;27.38;19.70;;;;;;;25.17;53.44;98302.13;4945357;29;20080;-63
2023/04/02 11:01:50;;;;;;;27.17;18.13;;;;;;;25.17;53.86;98293.19;4943818;29;20114;-64
2023/04/02 11:04:23;;;;;;;33.90;19.55;;;;;;;25.15;53.68;98298.09;4945658;29;20577;-63
2023/04/02 11:07:01;;;;;;;34.63;22.45;;;;;;;25.10;52.74;98287.34;4943922;29;20062;-63
2023/04/02 11:09:47;;;;;;;28.88;18.98;;;;;;;25.06;53.41;98295.25;4944650;29;20551;-63
2023/04/02 11:12:37;;;;;;;33.10;20.85;;;;;;;25.00;52.62;98291.81;4943347;29;20084;-63
2023/04/02 11:15:19;;;;;;;31.95;20.10;;;;;;;24.92;51.80;98288.97;4945971;29;20051;-62
2023/04/02 11:17:50;;;;;;;26.67;19.23;;;;;;;24.92;51.54;98287.09;4943918;29;20142;-63
2023/04/02 11:20:59;;;;;;;31.50;21.98;;;;;;;24.87;50.39;98291.78;4942392;29;20063;-63
2023/04/02 11:23:57;;;;;;;42.17;22.83;;;;;;;24.81;49.67;98285.63;4936350;29;20047;-64
2023/04/02 11:26:41;;;;;;;39.88;21.25;;;;;;;24.78;50.14;98280.81;4945234;28;20051;-63
2023/04/02 11:29:20;;;;;;;26.30;18.52;;;;;;;24.77;51.75;98287.31;4943868;28;20054;-64
2023/04/02 11:32:11;;;;;;;28.27;19.40;;;;;;;24.79;51.80;98285.09;4932989;29;20062;-64
2023/04/02 11:34:44;;;;;;;30.77;19.05;;;;;;;24.83;50.62;98288.81;4944643;29;20379;-64
2023/04/02 11:37:41;;;;;;;28.52;17.88;;;;;;;24.86;50.98;98276.63;4943936;29;20055;-63
2023/04/02 11:40:10;;;;;;;29.45;18.35;;;;;;;24.81;50.61;98279.38;4932195;29;20050;-62
2023/04/02 11:42:42;;;;;;;32.25;18.67;;;;;;;24.83;52.02;98280.69;4944260;29;20043;-62
2023/04/02 11:45:25;;;;;;;26.05;16.75;;;;;;;24.84;51.15;98282.31;4942399;28;20134;-66
2023/04/02 11:48:00;;;;;;;43.60;16.97;;;;;;;24.80;51.06;98273.16;4944648;28;20043;-65
2023/04/02 11:50:40;;;;;;;27.92;16.25;;;;;;;24.76;50.70;98269.44;4944521;29;20110;-64
2023/04/02 11:53:13;;;;;;;28.13;17.05;;;;;;;24.76;50.93;98264.03;4941624;29;20055;-62
2023/04/02 11:55:45;;;;;;;26.92;14.85;;;;;;;24.71;50.71;98255.16;4944750;29;20054;-63
2023/04/02 11:58:38;;;;;;;24.08;14.27;;;;;;;24.69;50.59;98254.66;4931372;29;20046;-64
2023/04/02 12:01:37;;;;;;;23.27;15.27;;;;;;;24.65;52.43;98262.56;4943400;28;20141;-64
2023/04/02 12:04:15;;;;;;;22.80;14.63;;;;;;;24.67;52.43;98249.53;4945205;28;20435;-62
2023/04/02 12:06:53;;;;;;;25.55;13.60;;;;;;;24.67;52.23;98252.25;4945149;28;20058;-62
2023/04/02 12:09:27;;;;;;;20.70;13.90;;;;;;;24.59;52.25;98247.50;4925216;28;20058;-63
2023/04/02 12:12:01;;;;;;;24.63;14.40;;;;;;;24.55;51.97;98244.59;4934058;29;20043;-61
2023/04/02 12:14:41;;;;;;;22.38;14.00;;;;;;;24.52;52.07;98242.44;4940880;29;20047;-63
2023/04/02 12:17:36;;;;;;;21.20;14.27;;;;;;;24.56;52.39;98248.09;4945309;29;20382;-64
2023/04/02 12:20:08;;;;;;;21.25;13.00;;;;;;;24.56;53.37;98245.41;4945344;29;20145;-62
2023/04/02 12:22:45;;;;;;;20.63;12.93;;;;;;;24.51;52.97;98240.84;4941599;29;20082;-64